Time,TemperatureF,DewpointF,PressureIn,WindDirection,WindDirectionDegrees,WindSpeedMPH,WindSpeedGustMPH,Humidity,HourlyPrecipIn,Conditions,Clouds,dailyrainin,SoftwareType,DateUTC
2013-05-09 00:03:00,51.0,-99.9,30.70,NE,38,1.0,2.0,-999,-99.99,,,-99.99,,2013-05-09 04:03:00,
2013-05-09 00:13:00,51.0,-99.9,30.00,NE,38,1.0,2.0,-999,-99.99,,,-99.99,,2013-05-09 04:13:00,
2013-05-09 00:23:00,51.0,-99.9,30.00,NE,38,1.0,2.0,-999,-99.99,,,-99.99,,2013-05-09 04:23:00,
2013-05-09 00:33:00,51.0,-99.9,30.00,NE,38,1.0,2.0,-999,-99.99,,,-99.99,,2013-05-09 04:33:00,
2013-05-09 00:40:00,52.0,-99.9,29.99,SE,141,5.0,6.0,-999,-99.99,,,-99.99,,2013-05-09 04:40:00,
2013-05-09 01:02:00,52.0,-99.9,30.69,SE,141,5.0,6.0,-999,-99.99,,,-99.99,,2013-05-09 05:02:00,
2013-05-09 01:12:00,52.0,-99.9,29.99,SE,141,5.0,6.0,-999,-99.99,,,-99.99,,2013-05-09 05:12:00,
2013-05-09 01:22:00,52.0,-99.9,29.99,SE,141,5.0,6.0,-999,-99.99,,,-99.99,,2013-05-09 05:22:00,
2013-05-09 01:32:00,52.0,-99.9,29.99,SE,141,5.0,6.0,-999,-99.99,,,-99.99,,2013-05-09 05:32:00,
2013-05-09 01:40:00,52.0,-99.9,29.98,West,275,2.0,2.0,-999,-99.99,,,-99.99,,2013-05-09 05:40:00,
2013-05-09 02:02:00,52.0,-99.9,30.68,West,275,2.0,2.0,-999,-99.99,,,-99.99,,2013-05-09 06:02:00,
2013-05-09 02:12:00,52.0,-99.9,29.98,West,275,2.0,2.0,-999,-99.99,,,-99.99,,2013-05-09 06:12:00,
2013-05-09 02:22:00,52.0,-99.9,29.98,West,275,2.0,2.0,-999,-99.99,,,-99.99,,2013-05-09 06:22:00,
2013-05-09 02:32:00,52.0,-99.9,29.98,West,275,2.0,2.0,-999,-99.99,,,-99.99,,2013-05-09 06:32:00,
2013-05-09 02:40:00,49.0,-99.9,29.97,SW,218,1.0,2.0,-999,-99.99,,,-99.99,,2013-05-09 06:40:00,
2013-05-09 03:02:00,49.0,-99.9,30.67,SW,218,1.0,2.0,-999,-99.99,,,-99.99,,2013-05-09 07:02:00,
2013-05-09 03:12:00,49.0,-99.9,29.97,SW,218,1.0,2.0,-999,-99.99,,,-99.99,,2013-05-09 07:12:00,
2013-05-09 03:22:00,49.0,-99.9,29.97,SW,218,1.0,2.0,-999,-99.99,,,-99.99,,2013-05-09 07:22:00,
2013-05-09 03:32:00,49.0,-99.9,29.97,SW,218,1.0,2.0,-999,-99.99,,,-99.99,,2013-05-09 07:32:00,
2013-05-09 03:40:00,46.0,-99.9,29.97,NE,42,1.0,3.0,-999,-99.99,,,-99.99,,2013-05-09 07:40:00,
2013-05-09 04:02:00,46.0,-99.9,30.67,NE,42,1.0,3.0,-999,-99.99,,,-99.99,,2013-05-09 08:02:00,
2013-05-09 04:11:00,46.0,-99.9,29.97,NE,42,1.0,3.0,-999,-99.99,,,-99.99,,2013-05-09 08:11:00,
2013-05-09 04:22:00,46.0,-99.9,29.97,NE,42,1.0,3.0,-999,-99.99,,,-99.99,,2013-05-09 08:22:00,
2013-05-09 04:32:00,46.0,-99.9,29.97,NE,42,1.0,3.0,-999,-99.99,,,-99.99,,2013-05-09 08:32:00,
2013-05-09 04:40:00,45.0,-99.9,29.97,NW,317,1.0,3.0,-999,-99.99,,,-99.99,,2013-05-09 08:40:00,
2013-05-09 05:02:00,45.0,-99.9,30.67,NW,317,1.0,3.0,-999,-99.99,,,-99.99,,2013-05-09 09:02:00,
2013-05-09 05:12:00,45.0,-99.9,29.97,NW,317,1.0,3.0,-999,-99.99,,,-99.99,,2013-05-09 09:12:00,
2013-05-09 05:22:00,45.0,-99.9,29.97,NW,317,1.0,3.0,-999,-99.99,,,-99.99,,2013-05-09 09:22:00,
2013-05-09 05:32:00,45.0,-99.9,29.97,NW,317,1.0,3.0,-999,-99.99,,,-99.99,,2013-05-09 09:32:00,
2013-05-09 05:40:00,45.0,-99.9,29.96,East,80,2.0,4.0,-999,-99.99,,,-99.99,,2013-05-09 09:40:00,
2013-05-09 06:02:00,45.0,-99.9,30.66,East,80,2.0,4.0,-999,-99.99,,,-99.99,,2013-05-09 10:02:00,
2013-05-09 06:12:00,45.0,-99.9,29.96,East,80,2.0,4.0,-999,-99.99,,,-99.99,,2013-05-09 10:12:00,
2013-05-09 06:23:00,45.0,-99.9,29.96,East,80,2.0,4.0,-999,-99.99,,,-99.99,,2013-05-09 10:23:00,
2013-05-09 06:33:00,45.0,-99.9,29.96,East,80,2.0,4.0,-999,-99.99,,,-99.99,,2013-05-09 10:33:00,
2013-05-09 06:40:00,46.0,-99.9,29.98,West,279,0.0,1.0,-999,-99.99,,,-99.99,,2013-05-09 10:40:00,
2013-05-09 07:03:00,46.0,-99.9,30.68,West,279,0.0,1.0,-999,-99.99,,,-99.99,,2013-05-09 11:03:00,
2013-05-09 07:12:00,46.0,-99.9,29.98,West,279,0.0,1.0,-999,-99.99,,,-99.99,,2013-05-09 11:12:00,
2013-05-09 07:22:00,46.0,-99.9,29.98,West,279,0.0,1.0,-999,-99.99,,,-99.99,,2013-05-09 11:22:00,
2013-05-09 07:32:00,46.0,-99.9,29.98,West,279,0.0,1.0,-999,-99.99,,,-99.99,,2013-05-09 11:32:00,
2013-05-09 07:40:00,47.0,-99.9,29.98,SW,221,2.0,3.0,-999,-99.99,,,-99.99,,2013-05-09 11:40:00,
2013-05-09 08:02:00,47.0,-99.9,30.68,SW,221,2.0,3.0,-999,-99.99,,,-99.99,,2013-05-09 12:02:00,
2013-05-09 08:12:00,47.0,-99.9,29.98,SW,221,2.0,3.0,-999,-99.99,,,-99.99,,2013-05-09 12:12:00,
2013-05-09 08:22:00,47.0,-99.9,29.98,SW,221,2.0,3.0,-999,-99.99,,,-99.99,,2013-05-09 12:22:00,
2013-05-09 08:32:00,47.0,-99.9,29.98,SW,221,2.0,3.0,-999,-99.99,,,-99.99,,2013-05-09 12:32:00,
2013-05-09 08:40:00,51.0,-99.9,29.99,ENE,66,1.0,3.0,-999,-99.99,,,-99.99,,2013-05-09 12:40:00,
2013-05-09 09:02:00,51.0,-99.9,30.69,ENE,66,1.0,3.0,-999,-99.99,,,-99.99,,2013-05-09 13:02:00,
2013-05-09 09:12:00,51.0,-99.9,29.99,ENE,66,1.0,3.0,-999,-99.99,,,-99.99,,2013-05-09 13:12:00,
2013-05-09 09:22:00,51.0,-99.9,29.99,ENE,66,1.0,3.0,-999,-99.99,,,-99.99,,2013-05-09 13:22:00,
2013-05-09 09:32:00,51.0,-99.9,29.99,ENE,66,1.0,3.0,-999,-99.99,,,-99.99,,2013-05-09 13:32:00,
2013-05-09 09:40:00,56.0,-99.9,29.99,ENE,58,5.0,6.0,-999,-99.99,,,-99.99,,2013-05-09 13:40:00,
2013-05-09 10:02:00,56.0,-99.9,30.69,ENE,58,5.0,6.0,-999,-99.99,,,-99.99,,2013-05-09 14:02:00,
2013-05-09 10:11:00,56.0,-99.9,29.99,ENE,58,5.0,6.0,-999,-99.99,,,-99.99,,2013-05-09 14:11:00,
2013-05-09 10:22:00,56.0,-99.9,29.99,ENE,58,5.0,6.0,-999,-99.99,,,-99.99,,2013-05-09 14:22:00,
2013-05-09 10:32:00,56.0,-99.9,29.99,ENE,58,5.0,6.0,-999,-99.99,,,-99.99,,2013-05-09 14:32:00,
2013-05-09 10:40:00,47.0,-99.9,29.99,WNW,282,7.0,10.0,-999,-99.99,,,-99.99,,2013-05-09 14:40:00,
2013-05-09 11:02:00,47.0,-99.9,30.69,WNW,282,7.0,10.0,-999,-99.99,,,-99.99,,2013-05-09 15:02:00,
2013-05-09 11:12:00,47.0,-99.9,29.99,WNW,282,7.0,10.0,-999,-99.99,,,-99.99,,2013-05-09 15:12:00,
2013-05-09 11:22:00,47.0,-99.9,29.99,WNW,282,7.0,10.0,-999,-99.99,,,-99.99,,2013-05-09 15:22:00,
2013-05-09 11:33:00,47.0,-99.9,29.99,WNW,282,7.0,10.0,-999,-99.99,,,-99.99,,2013-05-09 15:33:00,
2013-05-09 11:40:00,49.0,-99.9,30.01,NNW,328,4.0,7.0,-999,-99.99,,,-99.99,,2013-05-09 15:40:00,
2013-05-09 12:03:00,49.0,-99.9,30.71,NNW,328,4.0,7.0,-999,-99.99,,,-99.99,,2013-05-09 16:03:00,
2013-05-09 12:12:00,49.0,-99.9,30.01,NNW,328,4.0,7.0,-999,-99.99,,,-99.99,,2013-05-09 16:12:00,
2013-05-09 12:23:00,49.0,-99.9,30.01,NNW,328,4.0,7.0,-999,-99.99,,,-99.99,,2013-05-09 16:23:00,
2013-05-09 12:33:00,49.0,-99.9,30.01,NNW,328,4.0,7.0,-999,-99.99,,,-99.99,,2013-05-09 16:33:00,
2013-05-09 12:40:00,49.0,-99.9,30.02,NW,323,2.0,5.0,-999,-99.99,,,-99.99,,2013-05-09 16:40:00,
2013-05-09 13:02:00,49.0,-99.9,30.72,NW,323,2.0,5.0,-999,-99.99,,,-99.99,,2013-05-09 17:02:00,
2013-05-09 13:12:00,49.0,-99.9,30.02,NW,323,2.0,5.0,-999,-99.99,,,-99.99,,2013-05-09 17:12:00,
2013-05-09 13:22:00,49.0,-99.9,30.02,NW,323,2.0,5.0,-999,-99.99,,,-99.99,,2013-05-09 17:22:00,
2013-05-09 13:32:00,49.0,-99.9,30.02,NW,323,2.0,5.0,-999,-99.99,,,-99.99,,2013-05-09 17:32:00,
2013-05-09 13:40:00,49.0,-99.9,30.01,WNW,293,2.0,3.0,-999,-99.99,,,-99.99,,2013-05-09 17:40:00,
2013-05-09 14:02:00,49.0,-99.9,30.71,WNW,293,2.0,3.0,-999,-99.99,,,-99.99,,2013-05-09 18:02:00,
2013-05-09 14:12:00,49.0,-99.9,30.01,WNW,293,2.0,3.0,-999,-99.99,,,-99.99,,2013-05-09 18:12:00,
2013-05-09 14:22:00,49.0,-99.9,30.01,WNW,293,2.0,3.0,-999,-99.99,,,-99.99,,2013-05-09 18:22:00,
2013-05-09 14:32:00,49.0,-99.9,30.01,WNW,293,2.0,3.0,-999,-99.99,,,-99.99,,2013-05-09 18:32:00,
2013-05-09 14:40:00,54.0,-99.9,30.00,NNW,338,2.0,4.0,-999,-99.99,,,-99.99,,2013-05-09 18:40:00,
2013-05-09 15:01:00,54.0,-99.9,30.70,NNW,338,2.0,4.0,-999,-99.99,,,-99.99,,2013-05-09 19:01:00,
2013-05-09 15:12:00,54.0,-99.9,30.00,NNW,338,2.0,4.0,-999,-99.99,,,-99.99,,2013-05-09 19:12:00,
2013-05-09 15:21:00,54.0,-99.9,30.00,NNW,338,2.0,4.0,-999,-99.99,,,-99.99,,2013-05-09 19:21:00,
2013-05-09 15:32:00,54.0,-99.9,30.00,NNW,338,2.0,4.0,-999,-99.99,,,-99.99,,2013-05-09 19:32:00,
2013-05-09 15:40:00,53.0,-99.9,29.99,WNW,296,4.0,8.0,-999,-99.99,,,-99.99,,2013-05-09 19:40:00,
2013-05-09 16:02:00,53.0,-99.9,30.69,WNW,296,4.0,8.0,-999,-99.99,,,-99.99,,2013-05-09 20:02:00,
2013-05-09 16:11:00,53.0,-99.9,29.99,WNW,296,4.0,8.0,-999,-99.99,,,-99.99,,2013-05-09 20:11:00,
2013-05-09 16:22:00,53.0,-99.9,29.99,WNW,296,4.0,8.0,-999,-99.99,,,-99.99,,2013-05-09 20:22:00,
2013-05-09 16:32:00,53.0,-99.9,29.99,WNW,296,4.0,8.0,-999,-99.99,,,-99.99,,2013-05-09 20:32:00,
2013-05-09 16:40:00,49.0,-99.9,29.98,North,5,2.0,8.0,-999,-99.99,,,-99.99,,2013-05-09 20:40:00,
2013-05-09 17:02:00,49.0,-99.9,30.68,North,5,2.0,8.0,-999,-99.99,,,-99.99,,2013-05-09 21:02:00,
2013-05-09 17:12:00,49.0,-99.9,29.98,North,5,2.0,8.0,-999,-99.99,,,-99.99,,2013-05-09 21:12:00,
2013-05-09 17:23:00,49.0,-99.9,29.98,North,5,2.0,8.0,-999,-99.99,,,-99.99,,2013-05-09 21:23:00,
2013-05-09 17:33:00,49.0,-99.9,29.98,North,5,2.0,8.0,-999,-99.99,,,-99.99,,2013-05-09 21:33:00,
2013-05-09 17:40:00,47.0,-99.9,29.98,NNE,22,11.0,14.0,-999,-99.99,,,-99.99,,2013-05-09 21:40:00,
2013-05-09 18:03:00,47.0,-99.9,30.68,NNE,22,11.0,14.0,-999,-99.99,,,-99.99,,2013-05-09 22:03:00,
2013-05-09 18:13:00,47.0,-99.9,29.98,NNE,22,11.0,14.0,-999,-99.99,,,-99.99,,2013-05-09 22:13:00,
2013-05-09 18:23:00,47.0,-99.9,29.98,NNE,22,11.0,14.0,-999,-99.99,,,-99.99,,2013-05-09 22:23:00,
2013-05-09 18:33:00,47.0,-99.9,29.98,NNE,22,11.0,14.0,-999,-99.99,,,-99.99,,2013-05-09 22:33:00,
2013-05-09 18:40:00,45.0,-99.9,29.99,North,8,11.0,13.0,-999,-99.99,,,-99.99,,2013-05-09 22:40:00,
2013-05-09 19:03:00,45.0,-99.9,30.69,North,8,11.0,13.0,-999,-99.99,,,-99.99,,2013-05-09 23:03:00,
2013-05-09 19:12:00,45.0,-99.9,29.99,North,8,11.0,13.0,-999,-99.99,,,-99.99,,2013-05-09 23:12:00,
2013-05-09 19:22:00,45.0,-99.9,29.99,North,8,11.0,13.0,-999,-99.99,,,-99.99,,2013-05-09 23:22:00,
2013-05-09 19:32:00,45.0,-99.9,29.99,North,8,11.0,13.0,-999,-99.99,,,-99.99,,2013-05-09 23:32:00,
2013-05-09 19:40:00,45.0,-99.9,30.01,NNE,27,8.0,11.0,-999,-99.99,,,-99.99,,2013-05-09 23:40:00,
2013-05-09 20:02:00,45.0,-99.9,30.71,NNE,27,8.0,11.0,-999,-99.99,,,-99.99,,2013-05-10 00:02:00,
2013-05-09 20:11:00,45.0,-99.9,30.01,NNE,27,8.0,11.0,-999,-99.99,,,-99.99,,2013-05-10 00:11:00,
2013-05-09 20:22:00,45.0,-99.9,30.01,NNE,27,8.0,11.0,-999,-99.99,,,-99.99,,2013-05-10 00:22:00,
2013-05-09 20:32:00,45.0,-99.9,30.01,NNE,27,8.0,11.0,-999,-99.99,,,-99.99,,2013-05-10 00:32:00,
2013-05-09 20:40:00,44.0,-99.9,30.02,NNE,33,14.0,17.0,-999,-99.99,,,-99.99,,2013-05-10 00:40:00,
2013-05-09 21:01:00,44.0,-99.9,30.72,NNE,33,14.0,17.0,-999,-99.99,,,-99.99,,2013-05-10 01:01:00,
2013-05-09 21:11:00,44.0,-99.9,30.02,NNE,33,14.0,17.0,-999,-99.99,,,-99.99,,2013-05-10 01:11:00,
2013-05-09 21:22:00,44.0,-99.9,30.02,NNE,33,14.0,17.0,-999,-99.99,,,-99.99,,2013-05-10 01:22:00,
2013-05-09 21:32:00,44.0,-99.9,30.02,NNE,33,14.0,17.0,-999,-99.99,,,-99.99,,2013-05-10 01:32:00,
2013-05-09 21:40:00,43.0,-99.9,30.03,NNE,22,18.0,23.0,-999,-99.99,,,-99.99,,2013-05-10 01:40:00,
2013-05-09 22:02:00,43.0,-99.9,30.73,NNE,22,18.0,23.0,-999,-99.99,,,-99.99,,2013-05-10 02:02:00,
2013-05-09 22:11:00,43.0,-99.9,30.03,NNE,22,18.0,23.0,-999,-99.99,,,-99.99,,2013-05-10 02:11:00,
2013-05-09 22:21:00,43.0,-99.9,30.03,NNE,22,18.0,23.0,-999,-99.99,,,-99.99,,2013-05-10 02:21:00,
2013-05-09 22:32:00,43.0,-99.9,30.03,NNE,22,18.0,23.0,-999,-99.99,,,-99.99,,2013-05-10 02:32:00,
2013-05-09 22:40:00,42.0,-99.9,30.04,NNE,23,20.0,25.0,-999,-99.99,,,-99.99,,2013-05-10 02:40:00,
2013-05-09 23:01:00,42.0,-99.9,30.74,NNE,23,20.0,25.0,-999,-99.99,,,-99.99,,2013-05-10 03:01:00,
2013-05-09 23:11:00,42.0,-99.9,30.04,NNE,23,20.0,25.0,-999,-99.99,,,-99.99,,2013-05-10 03:11:00,
2013-05-09 23:22:00,42.0,-99.9,30.04,NNE,23,20.0,25.0,-999,-99.99,,,-99.99,,2013-05-10 03:22:00,
2013-05-09 23:33:00,42.0,-99.9,30.04,NNE,23,20.0,25.0,-999,-99.99,,,-99.99,,2013-05-10 03:33:00,
2013-05-09 23:40:00,41.0,-99.9,30.04,NE,34,21.0,24.0,-999,-99.99,,,-99.99,,2013-05-10 03:40:00,